Airfield :
LOGIN :

Register | Disclaimer

   EN    FR    IT 

 










Legend :    VFR   Marginal VFR   IFR   Intensive IFR   Very Intensive IFR
Visi :
Ceiling :
>= 8 km
>= 3000ft
5 to 8 km
1000 to 3000 ft
1500m to 5 km
500 to 1000 ft
800 to 1500m
200 to 500 ft
< 800m
< 200 ft
Symbols :   Thunderstorms  Fog  Heavy snow  Heavy precipitations  Wind > 20 kt
SIGMETs :     Misc.  Thunderstorms  Icing  Turbulence  Mountain Waves  Volcanic Ashes






- Airport Elevation : 863 ft
- IATA code : ZAZ


LEZG - Zaragoza Aragon

CURRENT METAR :
  • 032230Z 29012KT 260V320 9999 FEW070 20/16 Q1019

EXPIRED METARs :
  • 032200Z 30017KT 9999 FEW050 20/16 Q1019
  • 032130Z 29019G33KT 260V320 9999 FEW050 20/16 Q1018
  • 032100Z 29017KT 9999 VCTS FEW040CB 21/17 Q1018 RETSRA
  • 032041Z 29016KT 260V320 9999 TS FEW040CB 21/17 Q1017 RESHRA
  • 032030Z 29020KT 6000 TSRA FEW040CB SCT060 21/17 Q1017

TAF AMD TAF LEZG
Valid from the 03 at 18:00 until the 04 at 18:00 UTC


031813Z 0318/0418 11010KT CAVOK TX37/0415Z TN17/0406Z
PROB40
TEMPO 0318/0320 18015G35KT
TEMPO 0318/0321 TSRA FEW050CB
BECMG 0318/0321 33008KT



MET'MAP, your aeronautical weather chart ! - Copyright ORBIFLY December 2007 - Disclaimer

ORBIFLY MET'MAP TEAM :

Programming & Development : Alexandra Zaïnal
Original concept : Baudouin d'Aumeries
Technical & hardware support : Manuel Goepfert
Assistance : Marc-Olivier Méhu




SOURCES & CREDITS :

   NOAA